EDT,Max TemperatureF,Mean TemperatureF,Min TemperatureF,Max Dew PointF,MeanDew PointF,Min DewpointF,Max Humidity, Mean Humidity, Min Humidity, Max Sea Level PressureIn, Mean Sea Level PressureIn, Min Sea Level PressureIn, Max VisibilityMiles, Mean VisibilityMiles, Min VisibilityMiles, Max Wind SpeedMPH, Mean Wind SpeedMPH, Max Gust SpeedMPH,PrecipitationIn, CloudCover, Events, WindDirDegrees
2013-3-1,41,37,33,30,27,23,81,66,53,29.86,29.78,29.69,10,10,10,14,8,22,0.00,8,,305
2013-3-2,35,32,28,25,21,18,80,65,52,29.86,29.83,29.79,10,10,7,14,7,20,0.00,8,Snow,304
2013-3-3,35,32,28,21,19,18,74,62,48,29.88,29.82,29.77,10,10,10,18,10,29,0.00,8,,307
2013-3-4,39,32,24,19,16,12,69,56,39,30.01,29.94,29.88,10,10,10,21,9,29,0.00,3,,301
2013-3-5,46,35,24,28,20,16,74,58,34,30.05,29.98,29.83,10,10,10,8,1,,0.00,2,,66
2013-3-6,37,34,32,34,32,27,100,91,70,29.99,29.79,29.68,10,5,1,21,11,31,0.17,7,Rain-Snow,37
2013-3-7,46,40,33,30,25,19,81,60,37,30.14,30.07,29.99,10,10,10,15,6,25,0.00,5,,343
2013-3-8,46,39,32,28,25,19,81,60,43,30.27,30.18,30.12,10,10,10,20,7,30,0.00,4,,337
2013-3-9,57,44,30,25,20,14,69,44,18,30.34,30.29,30.25,10,10,10,14,2,24,0.00,1,,348
2013-3-10,62,48,35,36,19,1,71,35,13,30.32,30.26,30.21,10,10,10,14,1,20,0.00,1,,158
2013-3-11,59,50,41,48,41,30,93,76,51,30.23,30.10,29.94,10,10,7,17,8,28,0.00,3,Rain,153
2013-3-12,53,46,39,52,43,28,94,79,44,29.95,29.83,29.74,10,8,2,20,12,29,0.40,7,Rain,224
2013-3-13,44,38,32,28,23,12,70,55,27,30.02,29.94,29.88,10,10,10,21,8,34,0.00,4,Rain,281
2013-3-14,41,34,28,32,16,9,93,52,28,30.08,30.03,30.00,10,10,10,21,13,47,0.00,5,Snow,291
2013-3-15,51,40,28,32,23,16,74,48,28,30.05,29.91,29.77,10,10,10,17,8,25,0.00,3,,252
2013-3-16,46,40,33,37,33,30,93,79,53,29.93,29.78,29.68,10,8,1,13,2,,0.02,7,Rain,60
2013-3-17,39,36,32,32,28,25,93,76,56,30.26,30.13,29.96,10,10,3,10,3,16,0.00,5,Rain,16
2013-3-18,33,32,32,32,25,16,93,73,51,30.30,30.15,29.90,10,7,0,12,5,17,0.15,8,Rain-Snow,96
2013-3-19,55,44,32,37,26,-6,100,63,10,29.89,29.79,29.71,10,6,0,26,6,37,0.00,5,Fog-Rain-Snow,294
2013-3-20,48,39,30,25,13,3,65,37,17,29.96,29.87,29.76,10,10,10,20,11,28,0.00,3,,277
2013-3-21,35,30,26,27,12,1,86,48,25,29.85,29.79,29.73,10,10,5,17,8,26,0.00,7,Snow,311
2013-3-22,39,32,24,19,16,10,64,51,38,29.97,29.89,29.83,10,10,10,17,10,29,0.00,3,,285
2013-3-23,48,37,26,27,20,14,74,51,27,30.01,29.96,29.91,10,10,10,18,8,24,0.00,2,,308
2013-3-24,42,35,28,27,20,18,75,55,36,29.98,29.85,29.65,10,10,10,12,2,,0.00,3,,88
2013-3-25,37,34,30,34,30,27,100,88,65,29.67,29.56,29.51,10,4,0,7,3,,0.21,8,Fog-Snow,14
2013-3-26,48,39,30,34,28,19,100,70,32,29.97,29.82,29.68,10,9,1,12,5,20,0.00,5,Rain,297
2013-3-27,46,40,35,36,28,21,87,63,39,30.09,30.02,29.97,10,10,2,20,10,31,0.01,5,Rain,289
2013-3-28,46,39,32,32,27,21,81,60,37,30.20,30.11,30.05,10,10,7,16,8,24,0.00,7,Rain,303
2013-3-29,51,42,32,30,26,21,75,49,30,30.23,30.19,30.14,10,9,0,16,6,25,0.00,6,,309
2013-3-30,55,44,33,30,23,10,81,46,17,30.22,30.16,30.11,10,10,10,13,2,17,0.00,2,,259
2013-3-31,50,46,41,46,38,21,100,74,39,30.11,29.91,29.74,10,7,1,15,6,18,0.01,4,Rain,170